sensor_id;sensor_type;location;lat;lon;timestamp;pressure;altitude;pressure_sealevel;temperature;humidity
49459;BME280;35354;51.296;16.924;2023-06-14T00:02:01;99638.97;;;12.52;84.47
49459;BME280;35354;51.296;16.924;2023-06-14T00:04:26;99610.78;;;12.41;84.51
49459;BME280;35354;51.296;16.924;2023-06-14T00:06:52;99604.22;;;12.34;84.64
49459;BME280;35354;51.296;16.924;2023-06-14T00:09:18;99623.94;;;12.39;85.05
49459;BME280;35354;51.296;16.924;2023-06-14T00:11:43;99616.97;;;12.40;85.42
49459;BME280;35354;51.296;16.924;2023-06-14T00:14:09;99620.50;;;12.39;85.00
49459;BME280;35354;51.296;16.924;2023-06-14T00:16:34;99647.69;;;12.51;85.26
49459;BME280;35354;51.296;16.924;2023-06-14T00:19:01;99627.31;;;12.41;85.23
49459;BME280;35354;51.296;16.924;2023-06-14T00:21:29;99644.41;;;12.47;85.59
49459;BME280;35354;51.296;16.924;2023-06-14T00:23:55;99641.56;;;12.36;85.78
49459;BME280;35354;51.296;16.924;2023-06-14T00:26:20;99641.88;;;12.30;86.13
49459;BME280;35354;51.296;16.924;2023-06-14T00:28:46;99639.69;;;12.22;86.45
49459;BME280;35354;51.296;16.924;2023-06-14T00:31:11;99615.56;;;12.01;87.19
49459;BME280;35354;51.296;16.924;2023-06-14T00:33:36;99647.34;;;12.25;87.54
49459;BME280;35354;51.296;16.924;2023-06-14T00:36:02;99644.28;;;12.17;87.99
49459;BME280;35354;51.296;16.924;2023-06-14T00:38:27;99659.66;;;12.23;88.66
49459;BME280;35354;51.296;16.924;2023-06-14T00:40:52;99664.44;;;12.15;89.78
49459;BME280;35354;51.296;16.924;2023-06-14T00:43:18;99636.50;;;11.99;90.27
49459;BME280;35354;51.296;16.924;2023-06-14T00:45:43;99630.59;;;11.96;90.69
49459;BME280;35354;51.296;16.924;2023-06-14T00:48:10;99630.34;;;11.85;91.77
49459;BME280;35354;51.296;16.924;2023-06-14T00:50:36;99641.63;;;11.85;91.96
49459;BME280;35354;51.296;16.924;2023-06-14T00:53:03;99635.63;;;11.83;91.71
49459;BME280;35354;51.296;16.924;2023-06-14T00:55:29;99649.44;;;11.85;91.93
49459;BME280;35354;51.296;16.924;2023-06-14T00:57:55;99656.88;;;11.93;91.90
49459;BME280;35354;51.296;16.924;2023-06-14T01:00:21;99659.88;;;11.85;92.22
49459;BME280;35354;51.296;16.924;2023-06-14T01:02:46;99663.25;;;11.87;92.04
49459;BME280;35354;51.296;16.924;2023-06-14T01:05:13;99653.09;;;11.81;92.11
49459;BME280;35354;51.296;16.924;2023-06-14T01:13:23;99639.69;;;11.71;93.52
49459;BME280;35354;51.296;16.924;2023-06-14T01:15:52;99612.38;;;11.61;93.86
49459;BME280;35354;51.296;16.924;2023-06-14T01:18:19;99640.84;;;11.83;94.20
49459;BME280;35354;51.296;16.924;2023-06-14T01:20:46;99619.13;;;11.65;93.84
49459;BME280;35354;51.296;16.924;2023-06-14T01:23:19;99637.16;;;11.70;94.45
49459;BME280;35354;51.296;16.924;2023-06-14T01:25:45;99650.13;;;11.71;95.35
49459;BME280;35354;51.296;16.924;2023-06-14T01:28:12;99658.72;;;11.73;95.73
49459;BME280;35354;51.296;16.924;2023-06-14T01:30:44;99627.34;;;11.58;96.13
49459;BME280;35354;51.296;16.924;2023-06-14T01:33:14;99619.69;;;11.55;95.85
49459;BME280;35354;51.296;16.924;2023-06-14T01:35:43;99639.84;;;11.68;96.01
49459;BME280;35354;51.296;16.924;2023-06-14T01:38:09;99641.44;;;11.71;96.10
49459;BME280;35354;51.296;16.924;2023-06-14T01:40:35;99637.84;;;11.73;96.05
49459;BME280;35354;51.296;16.924;2023-06-14T01:43:02;99616.22;;;11.54;95.91
49459;BME280;35354;51.296;16.924;2023-06-14T01:45:29;99611.31;;;11.48;96.27
49459;BME280;35354;51.296;16.924;2023-06-14T01:47:54;99650.59;;;11.62;96.24
49459;BME280;35354;51.296;16.924;2023-06-14T01:50:20;99614.91;;;11.45;96.33
49459;BME280;35354;51.296;16.924;2023-06-14T01:52:46;99642.84;;;11.61;96.52
49459;BME280;35354;51.296;16.924;2023-06-14T01:55:11;99637.63;;;11.61;96.71
49459;BME280;35354;51.296;16.924;2023-06-14T01:57:36;99633.13;;;11.47;96.93
49459;BME280;35354;51.296;16.924;2023-06-14T02:00:03;99636.63;;;11.46;97.14
49459;BME280;35354;51.296;16.924;2023-06-14T02:02:29;99608.34;;;11.38;97.21
49459;BME280;35354;51.296;16.924;2023-06-14T02:04:54;99626.84;;;11.51;96.96
49459;BME280;35354;51.296;16.924;2023-06-14T02:07:22;99631.13;;;11.52;97.24
49459;BME280;35354;51.296;16.924;2023-06-14T02:09:48;99625.66;;;11.57;97.29
49459;BME280;35354;51.296;16.924;2023-06-14T02:12:13;99626.50;;;11.57;97.69
49459;BME280;35354;51.296;16.924;2023-06-14T02:14:38;99606.34;;;11.43;97.65
49459;BME280;35354;51.296;16.924;2023-06-14T02:17:04;99601.22;;;11.42;97.41
49459;BME280;35354;51.296;16.924;2023-06-14T02:19:31;99629.72;;;11.62;97.16
49459;BME280;35354;51.296;16.924;2023-06-14T02:21:57;99626.13;;;11.65;96.91
49459;BME280;35354;51.296;16.924;2023-06-14T02:24:22;99608.34;;;11.56;95.95
49459;BME280;35354;51.296;16.924;2023-06-14T02:26:49;99638.69;;;11.74;95.95
49459;BME280;35354;51.296;16.924;2023-06-14T02:29:14;99609.78;;;11.61;95.48
49459;BME280;35354;51.296;16.924;2023-06-14T02:31:40;99647.84;;;11.83;94.76
49459;BME280;35354;51.296;16.924;2023-06-14T02:34:06;99641.75;;;11.82;94.50
49459;BME280;35354;51.296;16.924;2023-06-14T02:36:35;99612.91;;;11.68;93.86
49459;BME280;35354;51.296;16.924;2023-06-14T02:39:00;99625.56;;;11.76;93.32
49459;BME280;35354;51.296;16.924;2023-06-14T02:41:26;99641.00;;;11.80;93.24
49459;BME280;35354;51.296;16.924;2023-06-14T02:43:54;99615.00;;;11.61;92.98
49459;BME280;35354;51.296;16.924;2023-06-14T02:46:21;99619.38;;;11.61;92.89
49459;BME280;35354;51.296;16.924;2023-06-14T02:48:46;99647.34;;;11.74;93.43
49459;BME280;35354;51.296;16.924;2023-06-14T02:51:11;99637.47;;;11.64;94.60
49459;BME280;35354;51.296;16.924;2023-06-14T02:53:37;99651.88;;;11.71;95.10
49459;BME280;35354;51.296;16.924;2023-06-14T02:56:03;99618.91;;;11.53;95.41
49459;BME280;35354;51.296;16.924;2023-06-14T02:58:31;99657.41;;;11.65;96.16
49459;BME280;35354;51.296;16.924;2023-06-14T03:00:58;99641.56;;;11.52;96.70
49459;BME280;35354;51.296;16.924;2023-06-14T03:03:27;99643.53;;;11.64;96.52
49459;BME280;35354;51.296;16.924;2023-06-14T03:05:53;99619.50;;;11.58;96.04
49459;BME280;35354;51.296;16.924;2023-06-14T03:08:19;99647.34;;;11.74;95.80
49459;BME280;35354;51.296;16.924;2023-06-14T03:10:46;99619.28;;;11.62;95.34
49459;BME280;35354;51.296;16.924;2023-06-14T03:13:12;99634.25;;;11.76;95.53
49459;BME280;35354;51.296;16.924;2023-06-14T03:15:38;99629.25;;;11.71;95.59
49459;BME280;35354;51.296;16.924;2023-06-14T03:18:08;99614.59;;;11.69;95.11
49459;BME280;35354;51.296;16.924;2023-06-14T03:20:34;99633.84;;;11.84;95.31
49459;BME280;35354;51.296;16.924;2023-06-14T03:23:01;99619.66;;;11.72;95.40
49459;BME280;35354;51.296;16.924;2023-06-14T03:25:27;99633.69;;;11.87;94.77
49459;BME280;35354;51.296;16.924;2023-06-14T03:27:55;99612.28;;;11.80;94.47
49459;BME280;35354;51.296;16.924;2023-06-14T03:30:20;99627.66;;;11.86;94.39
49459;BME280;35354;51.296;16.924;2023-06-14T03:32:45;99607.69;;;11.85;94.60
49459;BME280;35354;51.296;16.924;2023-06-14T03:35:11;99632.47;;;11.94;95.48
49459;BME280;35354;51.296;16.924;2023-06-14T03:37:42;99640.59;;;12.05;95.46
49459;BME280;35354;51.296;16.924;2023-06-14T03:40:08;99632.13;;;12.00;95.48
49459;BME280;35354;51.296;16.924;2023-06-14T03:42:34;99633.75;;;12.03;95.79
49459;BME280;35354;51.296;16.924;2023-06-14T03:44:59;99642.09;;;12.09;95.60
49459;BME280;35354;51.296;16.924;2023-06-14T03:47:24;99636.22;;;12.06;95.65
49459;BME280;35354;51.296;16.924;2023-06-14T03:49:50;99606.28;;;11.95;95.47
49459;BME280;35354;51.296;16.924;2023-06-14T03:52:15;99640.34;;;12.26;95.26
49459;BME280;35354;51.296;16.924;2023-06-14T03:54:42;99628.81;;;12.14;95.10
49459;BME280;35354;51.296;16.924;2023-06-14T03:57:09;99621.53;;;12.03;95.38
49459;BME280;35354;51.296;16.924;2023-06-14T03:59:35;99646.84;;;12.18;95.49
49459;BME280;35354;51.296;16.924;2023-06-14T04:02:01;99619.84;;;12.02;96.19
49459;BME280;35354;51.296;16.924;2023-06-14T04:04:27;99631.75;;;12.23;95.74
49459;BME280;35354;51.296;16.924;2023-06-14T04:06:57;99648.31;;;12.40;95.29
49459;BME280;35354;51.296;16.924;2023-06-14T04:09:24;99661.03;;;12.62;94.84
49459;BME280;35354;51.296;16.924;2023-06-14T04:11:51;99645.03;;;12.52;95.64
49459;BME280;35354;51.296;16.924;2023-06-14T04:14:18;99665.25;;;12.64;95.77
49459;BME280;35354;51.296;16.924;2023-06-14T04:16:44;99643.31;;;12.67;95.13
49459;BME280;35354;51.296;16.924;2023-06-14T04:19:09;99651.06;;;12.84;94.91
49459;BME280;35354;51.296;16.924;2023-06-14T04:21:34;99667.41;;;13.04;94.74
49459;BME280;35354;51.296;16.924;2023-06-14T04:24:00;99665.13;;;13.13;94.68
49459;BME280;35354;51.296;16.924;2023-06-14T04:26:26;99672.97;;;13.29;93.99
49459;BME280;35354;51.296;16.924;2023-06-14T04:28:55;99637.69;;;13.20;94.23
49459;BME280;35354;51.296;16.924;2023-06-14T04:31:22;99642.50;;;13.28;94.52
49459;BME280;35354;51.296;16.924;2023-06-14T04:33:50;99650.94;;;13.33;94.41
49459;BME280;35354;51.296;16.924;2023-06-14T04:36:16;99662.75;;;13.55;94.42
49459;BME280;35354;51.296;16.924;2023-06-14T04:38:43;99658.53;;;13.52;94.47
49459;BME280;35354;51.296;16.924;2023-06-14T04:41:10;99672.34;;;13.70;93.95
49459;BME280;35354;51.296;16.924;2023-06-14T04:43:37;99681.59;;;13.76;93.73
49459;BME280;35354;51.296;16.924;2023-06-14T04:46:06;99661.94;;;13.68;93.44
49459;BME280;35354;51.296;16.924;2023-06-14T04:48:39;99680.00;;;13.73;93.63
49459;BME280;35354;51.296;16.924;2023-06-14T04:51:06;99663.25;;;13.61;93.54
49459;BME280;35354;51.296;16.924;2023-06-14T04:53:32;99666.78;;;13.60;93.40
49459;BME280;35354;51.296;16.924;2023-06-14T04:55:57;99666.16;;;13.71;93.58
49459;BME280;35354;51.296;16.924;2023-06-14T04:58:22;99682.09;;;13.82;93.11
49459;BME280;35354;51.296;16.924;2023-06-14T05:00:48;99661.47;;;13.62;92.64
49459;BME280;35354;51.296;16.924;2023-06-14T05:03:13;99669.63;;;13.71;92.50
49459;BME280;35354;51.296;16.924;2023-06-14T05:05:41;99667.75;;;13.73;92.47
49459;BME280;35354;51.296;16.924;2023-06-14T05:08:07;99647.19;;;13.67;92.51
49459;BME280;35354;51.296;16.924;2023-06-14T05:10:34;99685.31;;;14.16;92.09
49459;BME280;35354;51.296;16.924;2023-06-14T05:13:01;99693.03;;;14.32;91.16
49459;BME280;35354;51.296;16.924;2023-06-14T05:15:26;99660.41;;;14.37;89.84
49459;BME280;35354;51.296;16.924;2023-06-14T05:17:52;99691.59;;;15.37;87.73
49459;BME280;35354;51.296;16.924;2023-06-14T05:20:24;99692.66;;;15.87;85.40
49459;BME280;35354;51.296;16.924;2023-06-14T05:22:51;99693.09;;;15.68;85.50
49459;BME280;35354;51.296;16.924;2023-06-14T05:25:17;99679.94;;;15.29;86.79
49459;BME280;35354;51.296;16.924;2023-06-14T05:27:42;99699.13;;;15.29;87.85
49459;BME280;35354;51.296;16.924;2023-06-14T05:30:08;99703.00;;;15.23;88.50
49459;BME280;35354;51.296;16.924;2023-06-14T05:32:34;99700.16;;;15.14;88.88
49459;BME280;35354;51.296;16.924;2023-06-14T05:34:59;99680.13;;;14.98;89.39
49459;BME280;35354;51.296;16.924;2023-06-14T05:37:25;99690.34;;;15.03;89.69
49459;BME280;35354;51.296;16.924;2023-06-14T05:39:50;99699.09;;;15.16;89.72
49459;BME280;35354;51.296;16.924;2023-06-14T05:42:16;99670.97;;;15.18;89.71
49459;BME280;35354;51.296;16.924;2023-06-14T05:44:41;99670.38;;;15.28;89.47
49459;BME280;35354;51.296;16.924;2023-06-14T05:47:06;99670.84;;;15.47;88.71
49459;BME280;35354;51.296;16.924;2023-06-14T05:49:32;99669.66;;;15.65;87.88
49459;BME280;35354;51.296;16.924;2023-06-14T05:51:57;99635.09;;;15.71;87.45
49459;BME280;35354;51.296;16.924;2023-06-14T05:54:22;99637.19;;;16.05;86.74
49459;BME280;35354;51.296;16.924;2023-06-14T05:56:48;99663.84;;;16.37;86.01
49459;BME280;35354;51.296;16.924;2023-06-14T05:59:13;99679.88;;;16.83;84.64
49459;BME280;35354;51.296;16.924;2023-06-14T06:01:38;99667.63;;;16.95;82.81
49459;BME280;35354;51.296;16.924;2023-06-14T06:04:05;99670.91;;;16.86;82.60
49459;BME280;35354;51.296;16.924;2023-06-14T06:06:31;99667.84;;;16.92;82.91
49459;BME280;35354;51.296;16.924;2023-06-14T06:08:57;99705.63;;;17.39;82.67
49459;BME280;35354;51.296;16.924;2023-06-14T06:11:23;99699.28;;;17.41;81.91
49459;BME280;35354;51.296;16.924;2023-06-14T06:13:48;99682.03;;;17.37;81.28
49459;BME280;35354;51.296;16.924;2023-06-14T06:16:14;99666.19;;;17.26;81.02
49459;BME280;35354;51.296;16.924;2023-06-14T06:18:40;99716.34;;;17.60;81.02
49459;BME280;35354;51.296;16.924;2023-06-14T06:21:05;99706.78;;;17.35;81.92
49459;BME280;35354;51.296;16.924;2023-06-14T06:23:31;99688.66;;;16.95;82.97
49459;BME280;35354;51.296;16.924;2023-06-14T06:25:56;99698.81;;;16.63;84.58
49459;BME280;35354;51.296;16.924;2023-06-14T06:28:22;99735.13;;;16.45;86.16
49459;BME280;35354;51.296;16.924;2023-06-14T06:30:47;99707.81;;;16.22;87.41
49459;BME280;35354;51.296;16.924;2023-06-14T06:33:12;99702.97;;;15.90;88.30
49459;BME280;35354;51.296;16.924;2023-06-14T06:35:39;99704.44;;;16.33;88.25
49459;BME280;35354;51.296;16.924;2023-06-14T06:38:04;99697.88;;;16.64;86.18
49459;BME280;35354;51.296;16.924;2023-06-14T06:40:30;99701.63;;;16.85;84.87
49459;BME280;35354;51.296;16.924;2023-06-14T06:42:55;99721.31;;;17.16;84.52
49459;BME280;35354;51.296;16.924;2023-06-14T06:45:21;99711.06;;;17.25;83.78
49459;BME280;35354;51.296;16.924;2023-06-14T06:47:48;99710.84;;;17.04;83.48
49459;BME280;35354;51.296;16.924;2023-06-14T06:50:15;99702.50;;;16.86;84.39
49459;BME280;35354;51.296;16.924;2023-06-14T06:52:40;99713.63;;;16.77;85.07
49459;BME280;35354;51.296;16.924;2023-06-14T06:55:06;99716.09;;;16.41;85.89
49459;BME280;35354;51.296;16.924;2023-06-14T06:57:32;99704.13;;;15.99;87.72
49459;BME280;35354;51.296;16.924;2023-06-14T06:59:57;99745.50;;;15.83;89.73
49459;BME280;35354;51.296;16.924;2023-06-14T07:02:22;99724.84;;;15.51;90.88
49459;BME280;35354;51.296;16.924;2023-06-14T07:04:48;99758.25;;;15.62;91.17
49459;BME280;35354;51.296;16.924;2023-06-14T07:07:13;99746.31;;;15.43;91.99
49459;BME280;35354;51.296;16.924;2023-06-14T07:09:39;99750.00;;;15.68;92.60
49459;BME280;35354;51.296;16.924;2023-06-14T07:12:06;99733.03;;;16.50;89.10
49459;BME280;35354;51.296;16.924;2023-06-14T07:14:31;99747.88;;;17.01;86.06
49459;BME280;35354;51.296;16.924;2023-06-14T07:16:57;99722.19;;;17.04;84.50
49459;BME280;35354;51.296;16.924;2023-06-14T07:19:22;99752.91;;;17.40;83.89
49459;BME280;35354;51.296;16.924;2023-06-14T07:21:48;99734.09;;;17.34;83.13
49459;BME280;35354;51.296;16.924;2023-06-14T07:24:13;99714.75;;;18.73;82.16
49459;BME280;35354;51.296;16.924;2023-06-14T07:26:39;99741.88;;;22.03;73.08
49459;BME280;35354;51.296;16.924;2023-06-14T07:29:04;99735.19;;;24.26;65.30
49459;BME280;35354;51.296;16.924;2023-06-14T07:31:30;99742.53;;;25.51;58.63
49459;BME280;35354;51.296;16.924;2023-06-14T07:33:55;99744.84;;;24.45;59.38
49459;BME280;35354;51.296;16.924;2023-06-14T07:36:21;99748.31;;;22.95;61.82
49459;BME280;35354;51.296;16.924;2023-06-14T07:38:47;99749.44;;;21.40;65.58
49459;BME280;35354;51.296;16.924;2023-06-14T07:41:12;99733.19;;;20.33;68.61
49459;BME280;35354;51.296;16.924;2023-06-14T07:43:37;99754.13;;;19.94;70.62
49459;BME280;35354;51.296;16.924;2023-06-14T07:46:04;99738.75;;;19.67;71.93
49459;BME280;35354;51.296;16.924;2023-06-14T07:48:30;99732.06;;;19.52;72.44
49459;BME280;35354;51.296;16.924;2023-06-14T07:50:55;99746.19;;;20.67;71.81
49459;BME280;35354;51.296;16.924;2023-06-14T07:53:21;99740.75;;;22.25;65.60
49459;BME280;35354;51.296;16.924;2023-06-14T07:55:46;99740.53;;;22.46;63.73
49459;BME280;35354;51.296;16.924;2023-06-14T07:58:12;99742.75;;;22.51;62.76
49459;BME280;35354;51.296;16.924;2023-06-14T08:00:38;99735.13;;;22.38;62.62
49459;BME280;35354;51.296;16.924;2023-06-14T08:03:03;99738.69;;;22.84;61.93
49459;BME280;35354;51.296;16.924;2023-06-14T08:05:29;99742.78;;;23.06;61.96
49459;BME280;35354;51.296;16.924;2023-06-14T08:07:54;99740.25;;;23.68;60.02
49459;BME280;35354;51.296;16.924;2023-06-14T08:10:21;99724.47;;;23.66;59.55
49459;BME280;35354;51.296;16.924;2023-06-14T08:12:46;99726.81;;;22.78;61.21
49459;BME280;35354;51.296;16.924;2023-06-14T08:15:13;99709.34;;;22.01;63.14
49459;BME280;35354;51.296;16.924;2023-06-14T08:17:38;99717.63;;;21.88;64.23
49459;BME280;35354;51.296;16.924;2023-06-14T08:20:04;99718.59;;;21.97;64.03
49459;BME280;35354;51.296;16.924;2023-06-14T08:22:30;99721.91;;;22.19;63.29
49459;BME280;35354;51.296;16.924;2023-06-14T08:24:59;99729.69;;;22.30;62.75
49459;BME280;35354;51.296;16.924;2023-06-14T08:27:25;99703.06;;;22.02;62.77
49459;BME280;35354;51.296;16.924;2023-06-14T08:29:50;99720.66;;;22.03;63.20
49459;BME280;35354;51.296;16.924;2023-06-14T08:32:16;99730.28;;;21.95;63.20
49459;BME280;35354;51.296;16.924;2023-06-14T08:34:41;99741.34;;;22.00;63.75
49459;BME280;35354;51.296;16.924;2023-06-14T08:37:07;99731.19;;;21.66;63.75
49459;BME280;35354;51.296;16.924;2023-06-14T08:39:32;99741.88;;;21.16;64.21
49459;BME280;35354;51.296;16.924;2023-06-14T08:41:58;99717.28;;;20.54;65.57
49459;BME280;35354;51.296;16.924;2023-06-14T08:44:26;99744.38;;;20.67;66.43
49459;BME280;35354;51.296;16.924;2023-06-14T08:46:51;99717.16;;;20.35;67.11
49459;BME280;35354;51.296;16.924;2023-06-14T08:49:19;99696.44;;;20.09;66.91
49459;BME280;35354;51.296;16.924;2023-06-14T08:51:45;99718.41;;;20.31;67.72
49459;BME280;35354;51.296;16.924;2023-06-14T08:54:12;99732.75;;;20.49;66.57
49459;BME280;35354;51.296;16.924;2023-06-14T08:56:40;99718.72;;;20.37;66.58
49459;BME280;35354;51.296;16.924;2023-06-14T08:59:07;99735.19;;;20.41;67.08
49459;BME280;35354;51.296;16.924;2023-06-14T09:01:34;99740.06;;;20.15;68.10
49459;BME280;35354;51.296;16.924;2023-06-14T09:04:00;99715.50;;;19.82;68.46
49459;BME280;35354;51.296;16.924;2023-06-14T09:06:27;99743.72;;;19.61;69.06
49459;BME280;35354;51.296;16.924;2023-06-14T09:08:54;99733.53;;;19.45;69.99
49459;BME280;35354;51.296;16.924;2023-06-14T09:11:20;99715.50;;;19.50;70.47
49459;BME280;35354;51.296;16.924;2023-06-14T09:13:46;99712.59;;;19.64;70.44
49459;BME280;35354;51.296;16.924;2023-06-14T09:16:12;99723.16;;;19.64;70.31
49459;BME280;35354;51.296;16.924;2023-06-14T09:18:41;99742.19;;;19.47;69.82
49459;BME280;35354;51.296;16.924;2023-06-14T09:21:09;99756.03;;;19.28;70.09
49459;BME280;35354;51.296;16.924;2023-06-14T09:23:41;99735.22;;;18.91;70.17
49459;BME280;35354;51.296;16.924;2023-06-14T09:26:15;99706.84;;;18.73;69.59
49459;BME280;35354;51.296;16.924;2023-06-14T09:28:48;99751.94;;;18.69;71.09
49459;BME280;35354;51.296;16.924;2023-06-14T09:31:19;99755.50;;;18.57;73.22
49459;BME280;35354;51.296;16.924;2023-06-14T09:33:46;99741.84;;;18.63;73.61
49459;BME280;35354;51.296;16.924;2023-06-14T09:36:24;99725.03;;;18.64;72.36
49459;BME280;35354;51.296;16.924;2023-06-14T09:38:59;99744.09;;;19.02;72.00
49459;BME280;35354;51.296;16.924;2023-06-14T09:41:39;99719.75;;;18.87;71.73
49459;BME280;35354;51.296;16.924;2023-06-14T09:44:07;99724.19;;;18.86;71.72
49459;BME280;35354;51.296;16.924;2023-06-14T09:46:33;99714.47;;;18.98;71.93
49459;BME280;35354;51.296;16.924;2023-06-14T09:49:01;99742.59;;;19.31;71.67
49459;BME280;35354;51.296;16.924;2023-06-14T09:51:27;99718.44;;;19.36;70.51
49459;BME280;35354;51.296;16.924;2023-06-14T09:53:55;99739.53;;;19.47;70.39
49459;BME280;35354;51.296;16.924;2023-06-14T09:56:29;99739.66;;;19.45;70.95
49459;BME280;35354;51.296;16.924;2023-06-14T09:58:58;99738.88;;;19.66;70.55
49459;BME280;35354;51.296;16.924;2023-06-14T10:01:31;99714.72;;;19.71;69.18
49459;BME280;35354;51.296;16.924;2023-06-14T10:04:04;99734.69;;;20.05;68.81
49459;BME280;35354;51.296;16.924;2023-06-14T10:06:31;99731.41;;;20.43;68.53
49459;BME280;35354;51.296;16.924;2023-06-14T10:08:59;99719.72;;;20.67;67.22
49459;BME280;35354;51.296;16.924;2023-06-14T10:11:28;99708.97;;;20.68;65.98
49459;BME280;35354;51.296;16.924;2023-06-14T10:13:57;99743.13;;;20.72;64.74
49459;BME280;35354;51.296;16.924;2023-06-14T10:16:33;99748.38;;;20.31;65.79
49459;BME280;35354;51.296;16.924;2023-06-14T10:19:19;99744.91;;;19.89;67.50
49459;BME280;35354;51.296;16.924;2023-06-14T10:24:49;99742.00;;;19.60;69.22
49459;BME280;35354;51.296;16.924;2023-06-14T10:27:16;99728.16;;;19.67;69.13
49459;BME280;35354;51.296;16.924;2023-06-14T10:32:21;99711.00;;;19.94;67.82
49459;BME280;35354;51.296;16.924;2023-06-14T10:35:01;99733.94;;;20.45;67.62
49459;BME280;35354;51.296;16.924;2023-06-14T10:37:27;99715.09;;;20.59;66.61
49459;BME280;35354;51.296;16.924;2023-06-14T10:39:53;99695.59;;;20.60;65.21
49459;BME280;35354;51.296;16.924;2023-06-14T10:42:19;99704.91;;;20.55;65.46
49459;BME280;35354;51.296;16.924;2023-06-14T10:44:52;99702.97;;;20.57;64.50
49459;BME280;35354;51.296;16.924;2023-06-14T10:47:32;99703.97;;;20.65;64.53
49459;BME280;35354;51.296;16.924;2023-06-14T10:50:10;99723.84;;;20.90;64.07
49459;BME280;35354;51.296;16.924;2023-06-14T10:52:41;99721.34;;;20.99;63.42
49459;BME280;35354;51.296;16.924;2023-06-14T10:55:14;99733.09;;;20.65;63.83
49459;BME280;35354;51.296;16.924;2023-06-14T11:00:11;99717.84;;;20.27;66.10
49459;BME280;35354;51.296;16.924;2023-06-14T11:05:28;99714.13;;;19.67;67.97
49459;BME280;35354;51.296;16.924;2023-06-14T11:10:43;99710.34;;;19.49;68.09
49459;BME280;35354;51.296;16.924;2023-06-14T11:13:10;99733.00;;;19.62;68.32
49459;BME280;35354;51.296;16.924;2023-06-14T11:15:37;99725.94;;;19.52;68.36
49459;BME280;35354;51.296;16.924;2023-06-14T11:18:04;99722.00;;;19.46;68.44
49459;BME280;35354;51.296;16.924;2023-06-14T11:20:31;99688.63;;;19.13;68.59
49459;BME280;35354;51.296;16.924;2023-06-14T11:22:58;99693.34;;;19.09;68.75
49459;BME280;35354;51.296;16.924;2023-06-14T11:25:24;99712.59;;;19.21;68.77
49459;BME280;35354;51.296;16.924;2023-06-14T11:27:50;99718.09;;;19.29;68.34
49459;BME280;35354;51.296;16.924;2023-06-14T11:30:16;99699.38;;;19.32;68.05
49459;BME280;35354;51.296;16.924;2023-06-14T11:32:41;99703.19;;;19.39;67.99
49459;BME280;35354;51.296;16.924;2023-06-14T11:35:08;99695.34;;;19.49;68.13
49459;BME280;35354;51.296;16.924;2023-06-14T11:37:36;99715.69;;;19.69;67.22
49459;BME280;35354;51.296;16.924;2023-06-14T11:40:03;99693.72;;;19.69;67.44
49459;BME280;35354;51.296;16.924;2023-06-14T11:42:33;99714.75;;;20.01;66.96
49459;BME280;35354;51.296;16.924;2023-06-14T11:44:58;99718.06;;;20.14;67.06
49459;BME280;35354;51.296;16.924;2023-06-14T11:47:24;99717.66;;;20.19;65.66
49459;BME280;35354;51.296;16.924;2023-06-14T11:49:49;99692.06;;;20.19;65.96
49459;BME280;35354;51.296;16.924;2023-06-14T11:52:15;99699.88;;;20.31;65.50
49459;BME280;35354;51.296;16.924;2023-06-14T11:54:40;99689.16;;;20.23;64.77
49459;BME280;35354;51.296;16.924;2023-06-14T11:57:09;99697.94;;;20.23;64.08
49459;BME280;35354;51.296;16.924;2023-06-14T11:59:39;99706.13;;;20.20;64.54
49459;BME280;35354;51.296;16.924;2023-06-14T12:02:05;99719.84;;;20.14;64.81
49459;BME280;35354;51.296;16.924;2023-06-14T12:04:31;99707.03;;;20.09;65.71
49459;BME280;35354;51.296;16.924;2023-06-14T12:06:57;99695.03;;;20.05;65.42
49459;BME280;35354;51.296;16.924;2023-06-14T12:09:23;99683.81;;;20.13;65.05
49459;BME280;35354;51.296;16.924;2023-06-14T12:11:49;99704.13;;;20.12;65.36
49459;BME280;35354;51.296;16.924;2023-06-14T12:14:15;99687.34;;;20.23;65.74
49459;BME280;35354;51.296;16.924;2023-06-14T12:16:42;99679.72;;;20.30;65.52
49459;BME280;35354;51.296;16.924;2023-06-14T12:19:12;99694.38;;;20.43;64.96
49459;BME280;35354;51.296;16.924;2023-06-14T12:21:38;99685.41;;;20.25;65.35
49459;BME280;35354;51.296;16.924;2023-06-14T12:24:06;99690.59;;;20.36;65.66
49459;BME280;35354;51.296;16.924;2023-06-14T12:26:32;99670.97;;;20.39;65.10
49459;BME280;35354;51.296;16.924;2023-06-14T12:28:58;99670.28;;;20.37;64.76
49459;BME280;35354;51.296;16.924;2023-06-14T12:31:23;99686.97;;;20.37;65.46
49459;BME280;35354;51.296;16.924;2023-06-14T12:33:49;99682.34;;;20.30;65.92
49459;BME280;35354;51.296;16.924;2023-06-14T12:36:14;99674.59;;;20.38;66.07
49459;BME280;35354;51.296;16.924;2023-06-14T12:38:40;99691.69;;;20.34;65.47
49459;BME280;35354;51.296;16.924;2023-06-14T12:41:07;99694.13;;;20.16;66.12
49459;BME280;35354;51.296;16.924;2023-06-14T12:43:32;99668.44;;;19.76;66.47
49459;BME280;35354;51.296;16.924;2023-06-14T12:45:58;99673.72;;;19.55;66.98
49459;BME280;35354;51.296;16.924;2023-06-14T12:48:23;99674.84;;;19.41;67.46
49459;BME280;35354;51.296;16.924;2023-06-14T12:50:48;99667.34;;;19.47;67.66
49459;BME280;35354;51.296;16.924;2023-06-14T12:53:14;99679.94;;;19.54;67.75
49459;BME280;35354;51.296;16.924;2023-06-14T12:55:39;99689.66;;;19.65;67.57
49459;BME280;35354;51.296;16.924;2023-06-14T12:58:05;99662.81;;;19.49;68.41
49459;BME280;35354;51.296;16.924;2023-06-14T13:00:30;99685.66;;;19.71;68.49
49459;BME280;35354;51.296;16.924;2023-06-14T13:02:56;99655.06;;;19.68;67.20
49459;BME280;35354;51.296;16.924;2023-06-14T13:05:22;99677.06;;;19.78;66.84
49459;BME280;35354;51.296;16.924;2023-06-14T13:07:47;99679.53;;;19.70;66.83